Time;durP1;ratioP1;P1;durP2;ratioP2;P2;SDS_P1;SDS_P2;PMS_P1;PMS_P2;Temp;Humidity;BMP_temperature;BMP_pressure;BME280_temperature;BME280_humidity;BME280_pressure;Samples;Min_cycle;Max_cycle;Signal;HPM_P1;HPM_P2
2022/04/20 00:01:42;;;;;;;5.45;2.38;;;8.30;64.30;;;;;;4200082;28;20096;-73
2022/04/20 00:03:45;;;;;;;3.15;2.10;;;8.40;64.60;;;;;;4197505;28;20058;-73
2022/04/20 00:05:46;;;;;;;4.45;2.60;;;8.30;64.90;;;;;;4200193;28;20599;-74
2022/04/20 00:07:48;;;;;;;6.55;3.17;;;8.30;65.50;;;;;;4194641;28;20053;-73
2022/04/20 00:09:50;;;;;;;3.08;2.45;;;8.20;65.90;;;;;;4199687;28;20065;-73
2022/04/20 00:11:52;;;;;;;4.28;3.25;;;8.10;66.50;;;;;;4194550;28;20057;-73
2022/04/20 00:13:55;;;;;;;5.10;2.42;;;8.10;67.10;;;;;;4191272;28;20069;-73
2022/04/20 00:15:58;;;;;;;8.82;2.85;;;8.00;67.50;;;;;;4190857;28;20096;-74
2022/04/20 00:17:59;;;;;;;3.60;3.10;;;8.00;67.80;;;;;;4195743;28;20122;-73
2022/04/20 00:20:01;;;;;;;7.05;3.80;;;7.90;68.20;;;;;;4195970;28;20679;-74
2022/04/20 00:22:03;;;;;;;6.40;4.10;;;7.90;68.50;;;;;;4195809;28;20056;-73
2022/04/20 00:24:05;;;;;;;3.60;3.30;;;7.90;68.90;;;;;;4189473;28;20104;-73
2022/04/20 00:26:07;;;;;;;3.13;2.83;;;7.80;69.40;;;;;;4195815;28;20088;-73
2022/04/20 00:28:09;;;;;;;3.40;3.17;;;7.80;69.60;;;;;;4193151;28;20049;-73
2022/04/20 00:30:12;;;;;;;4.75;3.42;;;7.80;69.90;;;;;;4197339;28;20067;-73
2022/04/20 00:32:14;;;;;;;3.58;3.22;;;7.70;70.20;;;;;;4200011;28;20961;-73
2022/04/20 00:34:16;;;;;;;6.35;3.40;;;7.70;70.40;;;;;;4195591;28;20173;-74
2022/04/20 00:36:18;;;;;;;6.20;2.97;;;7.70;70.70;;;;;;4190001;28;20159;-74
2022/04/20 00:38:20;;;;;;;3.75;3.40;;;7.60;70.70;;;;;;4194259;28;20164;-74
2022/04/20 00:40:21;;;;;;;4.55;3.03;;;7.60;71.10;;;;;;4173772;28;20172;-73
2022/04/20 00:42:26;;;;;;;5.93;3.20;;;7.50;71.50;;;;;;4185827;28;20148;-73
2022/04/20 00:44:29;;;;;;;4.68;3.35;;;7.50;71.90;;;;;;4194767;28;20635;-74
2022/04/20 00:46:31;;;;;;;3.92;3.55;;;7.50;72.00;;;;;;4194726;28;20088;-74
2022/04/20 00:48:35;;;;;;;3.67;3.38;;;7.50;72.40;;;;;;4194020;28;20061;-73
2022/04/20 00:50:42;;;;;;;4.07;3.15;;;7.40;72.70;;;;;;4192345;28;20122;-73
2022/04/20 00:52:44;;;;;;;6.03;3.95;;;7.30;73.10;;;;;;4193410;28;20057;-74
2022/04/20 00:55:06;;;;;;;4.10;3.70;;;7.30;73.20;;;;;;4199608;28;20056;-73
2022/04/20 00:57:08;;;;;;;5.65;4.00;;;7.40;73.20;;;;;;4194198;28;20805;-73
2022/04/20 00:59:11;;;;;;;6.75;3.38;;;7.30;73.50;;;;;;4200319;28;20093;-73
2022/04/20 01:01:13;;;;;;;6.50;3.67;;;7.30;73.50;;;;;;4191680;28;20155;-74
2022/04/20 01:03:15;;;;;;;3.92;3.33;;;7.30;73.80;;;;;;4188550;28;20184;-73
2022/04/20 01:05:17;;;;;;;3.45;3.17;;;7.30;73.60;;;;;;4194781;28;20079;-74
2022/04/20 01:07:19;;;;;;;4.75;4.35;;;7.30;73.80;;;;;;4196882;28;20096;-74
2022/04/20 01:09:20;;;;;;;4.30;3.90;;;7.30;74.00;;;;;;4171905;28;20176;-74
2022/04/20 01:11:22;;;;;;;3.88;3.47;;;7.30;74.00;;;;;;4195746;28;20092;-73
2022/04/20 01:13:24;;;;;;;7.43;4.00;;;7.20;74.10;;;;;;4200317;28;20056;-73
2022/04/20 01:15:26;;;;;;;4.55;3.50;;;7.30;74.10;;;;;;4193258;28;20172;-74
2022/04/20 01:17:28;;;;;;;6.35;4.35;;;7.20;74.40;;;;;;4196372;28;20876;-74
2022/04/20 01:19:40;;;;;;;5.25;4.00;;;7.20;74.70;;;;;;4194504;28;20057;-73
2022/04/20 01:21:42;;;;;;;4.15;3.78;;;7.20;74.70;;;;;;4186627;28;20080;-73
2022/04/20 01:23:44;;;;;;;5.40;3.50;;;7.10;74.60;;;;;;4191744;28;20092;-73
2022/04/20 01:25:46;;;;;;;6.03;3.88;;;7.10;74.80;;;;;;4188805;28;20104;-73
2022/04/20 01:27:47;;;;;;;4.40;3.90;;;7.10;74.80;;;;;;4190841;28;20677;-74
2022/04/20 01:29:49;;;;;;;4.05;3.60;;;7.00;74.90;;;;;;4189447;28;20068;-74
2022/04/20 01:31:51;;;;;;;4.40;4.00;;;7.00;75.00;;;;;;4191422;28;20052;-74
2022/04/20 01:33:53;;;;;;;4.72;3.97;;;7.00;75.30;;;;;;4193092;28;20804;-73
2022/04/20 01:35:55;;;;;;;5.22;3.47;;;6.90;75.50;;;;;;4186556;28;20119;-73
2022/04/20 01:37:56;;;;;;;4.78;3.75;;;6.90;75.80;;;;;;4187274;28;20092;-73
2022/04/20 01:39:58;;;;;;;3.78;3.47;;;6.80;75.90;;;;;;4188956;28;20062;-73
2022/04/20 01:42:00;;;;;;;4.75;4.05;;;6.80;76.00;;;;;;4189503;28;20152;-74
2022/04/20 01:44:01;;;;;;;8.15;3.72;;;6.90;75.90;;;;;;4192723;28;20049;-73
2022/04/20 01:46:03;;;;;;;5.63;3.47;;;6.90;76.00;;;;;;4187865;28;20220;-74
2022/04/20 01:48:07;;;;;;;4.22;3.53;;;6.90;75.70;;;;;;4207889;23;21156;-73
2022/04/20 01:50:09;;;;;;;3.72;3.20;;;6.90;75.60;;;;;;4190511;28;20041;-73
2022/04/20 01:52:11;;;;;;;3.90;3.60;;;6.90;75.20;;;;;;4170191;28;20064;-73
2022/04/20 01:54:13;;;;;;;4.85;3.35;;;7.00;74.80;;;;;;4182138;28;20061;-73
2022/04/20 01:56:15;;;;;;;4.63;3.78;;;6.90;74.80;;;;;;4188341;28;20060;-73
2022/04/20 01:58:16;;;;;;;5.72;3.38;;;6.90;75.20;;;;;;4187873;28;20089;-72
2022/04/20 02:00:18;;;;;;;5.00;3.15;;;7.00;75.10;;;;;;4190262;28;20179;-73
2022/04/20 02:02:35;;;;;;;6.20;3.72;;;6.90;75.00;;;;;;4187876;28;20057;-72
2022/04/20 02:04:37;;;;;;;6.63;3.22;;;6.90;75.00;;;;;;4182077;28;20569;-73
2022/04/20 02:06:39;;;;;;;6.45;3.35;;;6.90;75.40;;;;;;4190098;28;20091;-73
2022/04/20 02:08:41;;;;;;;4.22;3.55;;;6.90;75.40;;;;;;4191093;28;20064;-73
2022/04/20 02:10:43;;;;;;;4.05;3.30;;;6.80;75.50;;;;;;4190393;28;20057;-73
2022/04/20 02:12:44;;;;;;;3.60;3.38;;;6.80;75.40;;;;;;4191877;28;20053;-72
2022/04/20 02:14:47;;;;;;;4.50;3.58;;;6.80;75.40;;;;;;4194692;28;20053;-73
2022/04/20 02:16:48;;;;;;;5.45;3.97;;;6.80;75.90;;;;;;4185860;28;20092;-72
2022/04/20 02:18:50;;;;;;;3.70;3.30;;;6.60;76.20;;;;;;4194078;28;20053;-73
2022/04/20 02:20:52;;;;;;;3.55;3.25;;;6.50;76.80;;;;;;4188476;28;20060;-73
2022/04/20 02:22:54;;;;;;;3.58;3.28;;;6.50;77.10;;;;;;4187700;28;20097;-72
2022/04/20 02:24:56;;;;;;;5.80;4.18;;;6.50;77.10;;;;;;4185592;28;20148;-73
2022/04/20 02:26:57;;;;;;;5.45;3.92;;;6.50;77.00;;;;;;4192415;28;20103;-73
2022/04/20 02:28:59;;;;;;;8.48;6.60;;;6.60;76.90;;;;;;4185935;28;20053;-73
2022/04/20 02:31:01;;;;;;;16.63;8.35;;;6.60;76.80;;;;;;4186582;28;20092;-73
2022/04/20 02:33:03;;;;;;;12.27;7.65;;;6.60;76.90;;;;;;4190631;28;20076;-73
2022/04/20 02:35:05;;;;;;;9.90;7.07;;;6.70;76.90;;;;;;4188191;28;20819;-73
2022/04/20 02:37:07;;;;;;;8.77;6.30;;;6.70;76.90;;;;;;4190959;28;20076;-72
2022/04/20 02:39:08;;;;;;;8.20;6.13;;;6.60;76.80;;;;;;4187420;28;20067;-73
2022/04/20 02:41:10;;;;;;;6.90;5.53;;;6.60;77.10;;;;;;4185170;28;20069;-73
2022/04/20 02:43:12;;;;;;;4.80;4.35;;;6.50;77.20;;;;;;4191042;28;20787;-73
2022/04/20 02:45:16;;;;;;;4.85;4.13;;;6.50;77.50;;;;;;4191121;28;20075;-73
2022/04/20 02:47:17;;;;;;;5.30;3.92;;;6.50;77.50;;;;;;4193567;28;20092;-73
2022/04/20 02:49:21;;;;;;;8.27;4.55;;;6.40;77.60;;;;;;4181948;28;20105;-72
2022/04/20 02:51:22;;;;;;;5.47;3.95;;;6.40;77.80;;;;;;4192409;28;20065;-73
2022/04/20 02:53:24;;;;;;;10.25;6.38;;;6.40;77.80;;;;;;4193692;28;20062;-73
2022/04/20 02:55:26;;;;;;;4.55;4.07;;;6.30;78.20;;;;;;4190334;28;20096;-73
2022/04/20 02:57:28;;;;;;;5.68;3.95;;;6.30;78.50;;;;;;4188291;28;20050;-73
2022/04/20 02:59:30;;;;;;;4.07;3.78;;;6.20;78.70;;;;;;4193823;28;20063;-73
2022/04/20 03:01:32;;;;;;;3.85;3.47;;;6.20;78.90;;;;;;4193084;28;20097;-73
2022/04/20 03:03:35;;;;;;;4.05;3.60;;;6.20;78.80;;;;;;4194402;28;20057;-72
2022/04/20 03:05:36;;;;;;;4.25;3.55;;;6.20;78.80;;;;;;4185977;28;20920;-73
2022/04/20 03:07:38;;;;;;;4.47;3.90;;;6.10;79.20;;;;;;4181370;28;20075;-73
2022/04/20 03:09:40;;;;;;;3.75;3.45;;;6.10;79.40;;;;;;4192042;28;20152;-73
2022/04/20 03:11:42;;;;;;;3.85;3.55;;;6.10;79.30;;;;;;4192226;28;20092;-72
2022/04/20 03:13:44;;;;;;;4.38;3.97;;;6.00;79.60;;;;;;4192139;28;20180;-73
2022/04/20 03:15:47;;;;;;;3.53;3.22;;;5.90;79.60;;;;;;4200800;28;20178;-73
2022/04/20 03:17:49;;;;;;;3.97;3.65;;;5.90;79.80;;;;;;4186372;28;20057;-73
2022/04/20 03:19:51;;;;;;;3.97;3.67;;;5.90;80.40;;;;;;4195065;28;20098;-74
2022/04/20 03:21:53;;;;;;;3.67;3.38;;;5.80;80.40;;;;;;4191262;28;20063;-73
2022/04/20 03:23:55;;;;;;;4.30;3.83;;;5.80;80.30;;;;;;4170770;28;20058;-73
2022/04/20 03:25:56;;;;;;;4.38;3.97;;;5.80;80.50;;;;;;4188493;28;20160;-73
2022/04/20 03:27:58;;;;;;;4.47;4.07;;;5.70;81.20;;;;;;4194803;28;20212;-72
2022/04/20 03:30:00;;;;;;;3.88;3.58;;;5.60;81.40;;;;;;4190672;28;20181;-73
2022/04/20 03:32:09;;;;;;;3.80;3.50;;;5.60;81.50;;;;;;4189213;28;20054;-73
2022/04/20 03:34:12;;;;;;;6.65;3.30;;;5.60;81.30;;;;;;4194574;28;20076;-73
2022/04/20 03:36:14;;;;;;;5.82;3.72;;;5.70;81.10;;;;;;4194340;28;20104;-74
2022/04/20 03:38:16;;;;;;;4.65;3.75;;;5.70;80.80;;;;;;4194417;28;20057;-74
2022/04/20 03:40:18;;;;;;;4.50;3.63;;;5.70;80.70;;;;;;4185137;28;20064;-74
2022/04/20 03:42:19;;;;;;;3.63;3.33;;;5.70;80.70;;;;;;4184369;28;20151;-74
2022/04/20 03:44:21;;;;;;;4.10;3.70;;;5.70;80.70;;;;;;4186913;28;20160;-74
2022/04/20 03:46:24;;;;;;;3.80;3.50;;;5.70;81.00;;;;;;4193061;28;20118;-74
2022/04/20 03:48:26;;;;;;;4.97;3.50;;;5.60;81.30;;;;;;4192068;28;20061;-74
2022/04/20 03:50:27;;;;;;;3.83;3.53;;;5.60;82.00;;;;;;4187299;28;20084;-74
2022/04/20 03:52:29;;;;;;;3.58;3.25;;;5.60;81.90;;;;;;4189821;28;20058;-74
2022/04/20 03:54:31;;;;;;;4.95;4.20;;;5.50;81.80;;;;;;4187577;28;20058;-74
2022/04/20 03:57:03;;;;;;;4.60;3.78;;;5.40;82.90;;;;;;4191945;28;20064;-73
2022/04/20 03:58:54;;;;;;;5.32;3.95;;;5.30;82.70;;;;;;4190700;28;20057;-73
2022/04/20 04:00:56;;;;;;;4.28;3.88;;;5.20;83.80;;;;;;4186508;28;20947;-74
2022/04/20 04:02:58;;;;;;;3.30;3.10;;;5.20;84.00;;;;;;4182156;28;20140;-74
2022/04/20 04:05:00;;;;;;;6.18;4.05;;;5.20;83.50;;;;;;4194520;28;20100;-74
2022/04/20 04:07:02;;;;;;;4.47;3.58;;;5.20;84.10;;;;;;4194594;28;20890;-74
2022/04/20 04:09:03;;;;;;;6.53;3.75;;;5.20;83.50;;;;;;4186059;28;20084;-74
2022/04/20 04:11:05;;;;;;;4.65;3.83;;;5.10;83.80;;;;;;4174310;28;20175;-73
2022/04/20 04:13:07;;;;;;;3.90;3.60;;;5.10;85.00;;;;;;4195489;28;20068;-73
2022/04/20 04:15:09;;;;;;;4.53;3.33;;;5.10;84.00;;;;;;4190031;28;20057;-73
2022/04/20 04:17:10;;;;;;;5.55;3.90;;;5.10;84.00;;;;;;4195574;28;20057;-74
2022/04/20 04:19:12;;;;;;;4.53;4.00;;;5.00;84.80;;;;;;4183473;28;20576;-74
2022/04/20 04:21:14;;;;;;;3.72;3.42;;;5.00;85.30;;;;;;4191844;28;20057;-74
2022/04/20 04:23:17;;;;;;;3.63;3.38;;;5.00;84.90;;;;;;4191705;28;20064;-74
2022/04/20 04:25:20;;;;;;;5.22;3.72;;;5.00;85.00;;;;;;4192058;28;20059;-73
2022/04/20 04:27:22;;;;;;;3.80;3.40;;;5.00;84.80;;;;;;4188551;28;21837;-74
2022/04/20 04:29:24;;;;;;;3.78;3.47;;;5.00;84.80;;;;;;4189951;28;20128;-73
2022/04/20 04:31:27;;;;;;;4.05;3.22;;;5.00;84.80;;;;;;4194955;28;20107;-74
2022/04/20 04:33:28;;;;;;;6.68;3.90;;;5.00;85.00;;;;;;4181726;28;20119;-73
2022/04/20 04:35:30;;;;;;;5.63;4.00;;;4.90;84.80;;;;;;4185678;28;20096;-73
2022/04/20 04:37:34;;;;;;;3.75;3.47;;;4.90;84.40;;;;;;4190884;28;20115;-73
2022/04/20 04:39:35;;;;;;;6.00;3.90;;;4.90;84.10;;;;;;4189247;28;20064;-73
2022/04/20 04:41:37;;;;;;;3.83;3.20;;;5.00;84.30;;;;;;4191250;28;20802;-73
2022/04/20 04:43:39;;;;;;;3.97;3.60;;;5.00;83.80;;;;;;4189651;28;20077;-73
2022/04/20 04:50:21;;;;;;;4.72;3.65;;;5.10;84.00;;;;;;4195006;28;20089;-73
2022/04/20 04:52:23;;;;;;;15.50;11.90;;;5.20;84.60;;;;;;4190633;28;20915;-74
2022/04/20 04:54:25;;;;;;;22.40;15.40;;;5.30;83.70;;;;;;4204176;28;20111;-73
2022/04/20 04:56:27;;;;;;;6.30;5.20;;;5.40;83.50;;;;;;4192828;28;20068;-73
2022/04/20 04:58:29;;;;;;;5.38;4.25;;;5.50;83.00;;;;;;4195049;28;20124;-74
2022/04/20 05:00:30;;;;;;;4.28;3.88;;;5.60;82.20;;;;;;4189951;28;20063;-73
2022/04/20 05:02:32;;;;;;;3.65;3.33;;;5.70;81.90;;;;;;4197565;28;20163;-73
2022/04/20 05:04:36;;;;;;;6.65;4.90;;;5.80;81.30;;;;;;4194031;28;20104;-73
2022/04/20 05:06:38;;;;;;;3.70;3.40;;;5.90;81.00;;;;;;4192599;28;20872;-74
2022/04/20 05:08:39;;;;;;;3.47;3.17;;;6.00;80.30;;;;;;4188973;28;20057;-74
2022/04/20 05:10:41;;;;;;;5.55;4.20;;;6.00;79.80;;;;;;4193221;28;20056;-74
2022/04/20 05:12:43;;;;;;;4.30;3.90;;;6.00;80.30;;;;;;4189279;28;20151;-73
2022/04/20 05:14:44;;;;;;;4.85;4.55;;;6.00;79.40;;;;;;4194747;28;20835;-74
2022/04/20 05:16:46;;;;;;;5.63;4.80;;;6.20;80.50;;;;;;4197956;28;20124;-73
2022/04/20 05:18:48;;;;;;;5.20;4.70;;;6.30;79.70;;;;;;4178297;28;20093;-74
2022/04/20 05:20:50;;;;;;;5.25;4.38;;;6.40;79.20;;;;;;4193031;28;20152;-74
2022/04/20 05:22:51;;;;;;;6.60;3.65;;;6.60;79.40;;;;;;4195341;28;20048;-74
2022/04/20 05:24:53;;;;;;;4.93;3.75;;;6.60;77.90;;;;;;4197606;28;20108;-74
2022/04/20 05:26:55;;;;;;;8.38;4.47;;;6.80;77.00;;;;;;4190859;28;20152;-73
2022/04/20 05:28:57;;;;;;;5.03;3.97;;;6.90;76.40;;;;;;4189710;28;20081;-73
2022/04/20 05:30:59;;;;;;;7.18;5.10;;;7.10;76.20;;;;;;4188208;28;20057;-74
2022/04/20 05:33:01;;;;;;;6.25;4.00;;;7.20;76.10;;;;;;4192466;28;20622;-73
2022/04/20 05:35:03;;;;;;;3.85;3.50;;;7.40;75.40;;;;;;4189051;28;20959;-74
2022/04/20 05:41:45;;;;;;;4.82;3.92;;;7.60;73.80;;;;;;4188015;28;20053;-74
2022/04/20 05:43:47;;;;;;;4.95;4.28;;;7.60;73.50;;;;;;4190891;28;20088;-73
2022/04/20 05:45:50;;;;;;;6.18;4.40;;;7.60;73.10;;;;;;4191478;28;20168;-73
2022/04/20 05:47:58;;;;;;;6.38;4.05;;;7.60;73.90;;;;;;4188357;28;20783;-75
2022/04/20 05:50:00;;;;;;;5.80;4.03;;;7.60;73.20;;;;;;4191909;28;20764;-75
2022/04/20 05:52:02;;;;;;;7.93;3.38;;;7.70;72.90;;;;;;4197514;28;20056;-74
2022/04/20 05:54:03;;;;;;;13.93;4.57;;;7.70;72.70;;;;;;4198053;28;20057;-74
2022/04/20 05:56:05;;;;;;;5.70;3.90;;;7.80;72.70;;;;;;4181133;28;20099;-74
2022/04/20 05:58:07;;;;;;;14.15;4.75;;;7.90;72.10;;;;;;4194490;28;20168;-74
2022/04/20 06:00:09;;;;;;;6.18;4.05;;;7.90;72.20;;;;;;4197260;28;20143;-75
2022/04/20 06:02:11;;;;;;;8.50;4.22;;;8.00;72.00;;;;;;4195656;28;20092;-74
2022/04/20 06:04:12;;;;;;;12.90;4.85;;;8.00;71.50;;;;;;4195570;28;20124;-74
2022/04/20 06:06:14;;;;;;;5.53;3.85;;;7.90;71.40;;;;;;4195366;28;20064;-75
2022/04/20 06:08:16;;;;;;;6.53;3.80;;;7.90;71.10;;;;;;4192477;28;20757;-75
2022/04/20 06:10:18;;;;;;;11.00;3.53;;;8.00;71.10;;;;;;4194391;28;20107;-75
2022/04/20 06:12:22;;;;;;;6.20;2.92;;;8.00;70.50;;;;;;4193985;28;20064;-72
2022/04/20 06:14:24;;;;;;;3.55;3.25;;;8.00;68.70;;;;;;4193922;28;20104;-73
2022/04/20 06:16:26;;;;;;;7.50;3.63;;;7.90;68.00;;;;;;4187685;28;20091;-72
2022/04/20 06:18:32;;;;;;;3.03;2.83;;;7.70;67.50;;;;;;4195204;28;20061;-73
2022/04/20 06:20:34;;;;;;;3.15;2.90;;;7.70;67.60;;;;;;4191053;28;20093;-74
2022/04/20 06:22:36;;;;;;;2.90;2.60;;;7.70;67.40;;;;;;4187345;28;20140;-74
2022/04/20 06:24:40;;;;;;;2.88;2.60;;;7.60;67.50;;;;;;4188493;28;20089;-74
2022/04/20 06:26:42;;;;;;;3.13;2.90;;;7.50;67.00;;;;;;4195719;28;20195;-74
2022/04/20 06:28:44;;;;;;;3.42;2.90;;;7.50;67.30;;;;;;4195762;28;20915;-74
2022/04/20 06:30:46;;;;;;;3.67;3.05;;;7.60;66.50;;;;;;4195228;28;20061;-72
2022/04/20 06:32:48;;;;;;;2.60;2.40;;;7.60;66.80;;;;;;4195352;28;20126;-74
2022/04/20 06:34:54;;;;;;;2.65;2.45;;;7.60;67.30;;;;;;4192585;28;20179;-75
2022/04/20 06:36:56;;;;;;;2.75;2.45;;;7.60;67.30;;;;;;4194488;28;20152;-73
2022/04/20 06:38:58;;;;;;;3.05;2.70;;;7.70;66.70;;;;;;4195564;28;20157;-74
2022/04/20 06:40:59;;;;;;;2.45;2.28;;;7.70;66.70;;;;;;4193904;28;20096;-74
2022/04/20 06:43:06;;;;;;;4.40;3.85;;;7.70;67.10;;;;;;4191748;28;20068;-75
2022/04/20 06:45:08;;;;;;;2.47;2.28;;;7.90;66.70;;;;;;4195244;28;20053;-73
2022/04/20 06:47:10;;;;;;;3.15;2.60;;;8.00;66.00;;;;;;4197425;28;20168;-74
2022/04/20 06:49:12;;;;;;;2.83;2.63;;;8.00;66.10;;;;;;4178673;28;20164;-73
2022/04/20 06:51:13;;;;;;;2.70;2.50;;;7.90;65.80;;;;;;4172087;28;20165;-74
2022/04/20 07:00:19;;;;;;;3.13;2.92;;;7.90;67.00;;;;;;4192013;28;20060;-74
2022/04/20 07:02:21;;;;;;;3.75;3.10;;;7.90;66.50;;;;;;4189934;28;20866;-73
2022/04/20 07:04:25;;;;;;;3.45;2.72;;;7.90;66.80;;;;;;4194577;28;20063;-73
2022/04/20 07:06:27;;;;;;;3.10;2.90;;;8.00;66.80;;;;;;4192346;28;20591;-73
2022/04/20 07:08:31;;;;;;;3.83;3.53;;;8.10;67.40;;;;;;4172710;28;20932;-73
2022/04/20 07:10:32;;;;;;;3.75;3.33;;;8.10;66.50;;;;;;4187629;28;20275;-75
2022/04/20 07:12:35;;;;;;;3.35;3.05;;;8.10;66.50;;;;;;4192512;28;20067;-73
2022/04/20 07:14:36;;;;;;;4.25;3.45;;;8.30;67.40;;;;;;4194418;28;20053;-74
2022/04/20 07:16:38;;;;;;;3.90;2.80;;;8.30;66.10;;;;;;4190324;28;20152;-74
2022/04/20 07:18:40;;;;;;;4.05;3.10;;;8.40;65.80;;;;;;4194624;28;20092;-74
2022/04/20 07:20:42;;;;;;;5.00;3.13;;;8.40;66.00;;;;;;4174787;28;20136;-74
2022/04/20 07:22:47;;;;;;;6.28;3.50;;;8.50;66.00;;;;;;4193328;28;20065;-73
2022/04/20 07:24:49;;;;;;;4.05;3.10;;;8.40;65.70;;;;;;4196446;28;20061;-74
2022/04/20 07:26:51;;;;;;;3.40;3.15;;;8.40;65.50;;;;;;4198282;28;20057;-74
2022/04/20 07:28:55;;;;;;;5.35;3.70;;;8.30;65.40;;;;;;4194134;28;20160;-74
2022/04/20 07:30:56;;;;;;;3.88;3.50;;;8.10;66.50;;;;;;4191084;28;20155;-73
2022/04/20 07:32:58;;;;;;;5.60;3.50;;;8.20;66.70;;;;;;4196628;28;20061;-73
2022/04/20 07:35:00;;;;;;;3.65;3.28;;;8.20;67.00;;;;;;4194271;28;20153;-72
2022/04/20 07:37:03;;;;;;;5.10;3.55;;;8.30;65.70;;;;;;4193926;28;20168;-72
2022/04/20 07:39:05;;;;;;;3.45;3.15;;;8.30;65.80;;;;;;4193829;28;20798;-73
2022/04/20 07:41:06;;;;;;;3.70;3.38;;;8.40;65.60;;;;;;4197714;28;20890;-73
2022/04/20 07:43:08;;;;;;;3.47;3.17;;;8.40;66.00;;;;;;4197975;28;20175;-73
2022/04/20 07:45:11;;;;;;;6.22;3.30;;;8.50;66.50;;;;;;4191760;28;20189;-72
2022/04/20 07:47:12;;;;;;;4.78;3.20;;;8.60;66.10;;;;;;4195211;28;20153;-73
2022/04/20 07:51:34;;;;;;;5.53;3.35;;;8.70;66.20;;;;;;4193022;28;20049;-72
2022/04/20 07:53:36;;;;;;;5.05;3.50;;;8.70;65.60;;;;;;4191271;28;20184;-74
2022/04/20 07:55:46;;;;;;;5.60;3.53;;;8.80;65.80;;;;;;4190411;28;20152;-74
2022/04/20 07:57:49;;;;;;;5.75;3.25;;;8.80;64.30;;;;;;4191025;28;20864;-73
2022/04/20 07:59:51;;;;;;;3.15;2.95;;;9.00;64.70;;;;;;4198016;28;20064;-73
2022/04/20 08:01:53;;;;;;;3.72;3.38;;;9.10;64.40;;;;;;4196608;28;20096;-73
2022/04/20 08:03:54;;;;;;;3.25;2.95;;;9.00;61.70;;;;;;4197923;28;20056;-72
2022/04/20 08:05:58;;;;;;;3.17;2.80;;;8.60;63.20;;;;;;4193109;28;20197;-74
2022/04/20 08:08:00;;;;;;;5.38;3.70;;;8.80;64.90;;;;;;4194229;28;20049;-72
2022/04/20 08:10:06;;;;;;;3.08;2.85;;;8.90;64.50;;;;;;4194250;28;20749;-71
2022/04/20 08:12:08;;;;;;;3.00;2.80;;;8.80;64.40;;;;;;4193999;28;20064;-72
2022/04/20 08:14:10;;;;;;;5.50;2.97;;;8.90;64.80;;;;;;4198620;28;20088;-72
2022/04/20 08:16:11;;;;;;;4.18;3.53;;;9.00;62.50;;;;;;4190862;28;21081;-72
2022/04/20 08:18:13;;;;;;;3.50;3.20;;;9.10;62.80;;;;;;4196152;28;20860;-75
2022/04/20 08:20:15;;;;;;;2.95;2.72;;;9.30;63.20;;;;;;4190488;28;20931;-72
2022/04/20 08:22:16;;;;;;;3.55;3.25;;;9.50;61.10;;;;;;4197371;28;20103;-71
2022/04/20 08:24:18;;;;;;;4.68;3.40;;;9.40;61.20;;;;;;4195635;28;20053;-72
2022/04/20 08:26:20;;;;;;;4.32;3.58;;;9.30;61.30;;;;;;4193348;28;20079;-72
2022/04/20 08:28:22;;;;;;;2.85;2.53;;;9.40;61.10;;;;;;4194334;28;20151;-72
2022/04/20 08:30:24;;;;;;;5.07;3.08;;;9.40;60.70;;;;;;4184418;28;20042;-71
2022/04/20 08:32:26;;;;;;;3.35;3.05;;;9.50;60.00;;;;;;4194048;28;20057;-71
2022/04/20 08:34:27;;;;;;;5.68;3.50;;;9.50;61.10;;;;;;4188937;28;20057;-72
2022/04/20 08:36:50;;;;;;;2.80;2.60;;;9.40;61.60;;;;;;4189623;28;20068;-72
2022/04/20 08:38:52;;;;;;;3.45;3.20;;;9.50;62.10;;;;;;4193883;28;20634;-71
2022/04/20 08:40:56;;;;;;;3.92;3.17;;;9.70;61.10;;;;;;4194772;28;20095;-72
2022/04/20 08:43:01;;;;;;;3.10;2.85;;;9.70;60.80;;;;;;4196524;28;20139;-72
2022/04/20 08:45:03;;;;;;;3.33;3.03;;;9.80;61.10;;;;;;4190611;28;20053;-71
2022/04/20 08:47:07;;;;;;;6.50;3.97;;;9.90;60.60;;;;;;4191353;28;20152;-71
2022/04/20 08:49:09;;;;;;;5.05;3.10;;;9.80;59.30;;;;;;4189667;28;20857;-72
2022/04/20 08:51:11;;;;;;;4.43;3.67;;;9.80;59.80;;;;;;4195610;28;20068;-73
2022/04/20 08:53:15;;;;;;;3.20;3.00;;;9.80;60.70;;;;;;4192369;28;20068;-72
2022/04/20 08:55:18;;;;;;;3.90;3.42;;;9.90;60.50;;;;;;4185046;28;20096;-72
2022/04/20 08:57:20;;;;;;;3.47;3.05;;;9.80;59.70;;;;;;4182443;28;20712;-72
2022/04/20 08:59:22;;;;;;;9.30;3.30;;;9.80;60.40;;;;;;4189287;28;20053;-72
2022/04/20 09:01:26;;;;;;;3.30;3.00;;;9.80;59.50;;;;;;4172550;28;20128;-72
2022/04/20 09:03:29;;;;;;;3.90;3.60;;;9.80;60.80;;;;;;4195532;28;20056;-72
2022/04/20 09:05:34;;;;;;;3.15;2.85;;;9.80;60.90;;;;;;4185824;28;20061;-72
2022/04/20 09:07:36;;;;;;;3.38;2.95;;;9.90;60.80;;;;;;4187146;28;20056;-72
2022/04/20 09:09:38;;;;;;;4.20;3.00;;;10.00;60.60;;;;;;4191691;28;20152;-72
2022/04/20 09:11:40;;;;;;;3.10;2.80;;;10.20;58.90;;;;;;4192772;28;21897;-72
2022/04/20 09:13:44;;;;;;;5.65;2.97;;;10.20;58.50;;;;;;4193905;28;20097;-72
2022/04/20 09:15:50;;;;;;;4.40;3.30;;;10.20;58.90;;;;;;4189979;28;20156;-72
2022/04/20 09:17:52;;;;;;;3.30;3.00;;;10.20;58.10;;;;;;4173407;28;20605;-71
2022/04/20 09:19:55;;;;;;;3.63;3.28;;;10.20;57.90;;;;;;4192667;28;20878;-73
2022/04/20 09:21:57;;;;;;;5.00;2.97;;;10.30;58.50;;;;;;4188245;28;20148;-73
2022/04/20 09:24:09;;;;;;;3.00;2.72;;;10.30;58.90;;;;;;4186950;28;20156;-72
2022/04/20 09:26:17;;;;;;;5.45;3.15;;;10.40;57.90;;;;;;4191898;28;20097;-73
2022/04/20 09:28:20;;;;;;;3.05;2.38;;;10.50;58.20;;;;;;4193520;28;20800;-73
2022/04/20 09:30:22;;;;;;;3.20;3.00;;;10.60;57.30;;;;;;4191020;28;20061;-73
2022/04/20 09:32:35;;;;;;;3.75;3.42;;;10.70;58.10;;;;;;4187956;28;20057;-73
2022/04/20 09:34:53;;;;;;;4.07;3.05;;;10.70;56.10;;;;;;4186708;28;20702;-73
2022/04/20 09:36:57;;;;;;;3.83;2.92;;;10.60;57.50;;;;;;4188687;28;20095;-72
2022/04/20 09:39:03;;;;;;;3.25;3.05;;;10.80;57.00;;;;;;4190345;28;20061;-73
2022/04/20 09:41:09;;;;;;;4.15;3.35;;;10.80;56.90;;;;;;4190410;28;20064;-74
2022/04/20 09:43:16;;;;;;;4.35;3.15;;;10.80;57.30;;;;;;4191837;28;20057;-73
2022/04/20 09:45:20;;;;;;;3.25;2.45;;;11.10;57.30;;;;;;4188901;28;20052;-74
2022/04/20 09:50:03;;;;;;;3.30;3.00;;;11.10;55.30;;;;;;4187421;28;20072;-73
2022/04/20 09:52:11;;;;;;;3.15;2.95;;;10.90;56.10;;;;;;4186264;28;20065;-73
2022/04/20 09:54:29;;;;;;;4.43;2.88;;;11.10;56.00;;;;;;4193554;28;20176;-74
2022/04/20 09:56:32;;;;;;;3.53;2.35;;;11.20;55.40;;;;;;4195760;28;20175;-74
2022/04/20 09:58:34;;;;;;;3.33;2.60;;;11.20;54.80;;;;;;4195079;28;20068;-75
2022/04/20 10:00:45;;;;;;;3.63;2.58;;;11.10;54.80;;;;;;4193281;28;20103;-73
2022/04/20 10:02:51;;;;;;;2.70;2.45;;;11.20;56.00;;;;;;4196206;28;20103;-73
2022/04/20 10:04:55;;;;;;;8.75;2.58;;;11.40;55.70;;;;;;4192357;28;20057;-74
2022/04/20 10:06:57;;;;;;;2.72;2.53;;;11.40;54.60;;;;;;4194263;28;20061;-74
2022/04/20 10:09:00;;;;;;;2.90;2.70;;;11.30;54.70;;;;;;4194389;28;20056;-74
2022/04/20 10:11:05;;;;;;;3.17;2.40;;;11.20;55.00;;;;;;4191941;28;20179;-74
2022/04/20 10:13:07;;;;;;;3.53;2.75;;;11.20;55.90;;;;;;4195448;28;20638;-73
2022/04/20 10:17:31;;;;;;;3.08;2.45;;;11.40;53.50;;;;;;4195419;28;20836;-73
2022/04/20 10:19:36;;;;;;;3.35;2.97;;;11.40;54.30;;;;;;4194729;28;20184;-73
2022/04/20 10:21:45;;;;;;;2.63;2.42;;;11.40;53.50;;;;;;4184333;28;20159;-73
2022/04/20 10:23:49;;;;;;;5.13;2.63;;;11.30;54.70;;;;;;4188596;28;20141;-73
2022/04/20 10:25:53;;;;;;;3.88;2.33;;;11.40;54.40;;;;;;4190303;28;20053;-74
2022/04/20 10:27:57;;;;;;;4.75;2.20;;;11.50;54.70;;;;;;4187192;28;20832;-74
2022/04/20 10:30:10;;;;;;;2.50;2.30;;;11.60;53.80;;;;;;4189812;28;20061;-73
2022/04/20 10:32:22;;;;;;;3.03;2.28;;;11.60;53.10;;;;;;4190880;28;20134;-73
2022/04/20 10:34:25;;;;;;;3.35;2.95;;;11.70;52.60;;;;;;4187422;28;20068;-73
2022/04/20 10:36:31;;;;;;;3.50;3.03;;;11.60;53.20;;;;;;4183606;28;20057;-73
2022/04/20 10:38:33;;;;;;;6.20;2.92;;;11.40;53.40;;;;;;4189636;28;20148;-73
2022/04/20 10:40:53;;;;;;;2.47;2.22;;;11.30;53.80;;;;;;4194342;28;20148;-73
2022/04/20 10:43:22;;;;;;;2.88;2.58;;;11.40;53.60;;;;;;4192994;28;20766;-73
2022/04/20 10:45:24;;;;;;;3.33;3.03;;;11.20;52.00;;;;;;4171421;28;20053;-74
2022/04/20 10:47:28;;;;;;;3.58;2.08;;;11.30;52.50;;;;;;4189393;28;20093;-73
2022/04/20 10:49:34;;;;;;;2.78;2.50;;;11.40;53.50;;;;;;4187036;28;20068;-74
2022/04/20 10:51:40;;;;;;;3.15;2.85;;;11.60;52.80;;;;;;4185852;28;20946;-73
2022/04/20 10:53:47;;;;;;;3.42;2.40;;;11.70;52.90;;;;;;4184203;28;20155;-74
2022/04/20 10:55:48;;;;;;;2.25;2.00;;;11.70;52.70;;;;;;4188701;28;20053;-73
2022/04/20 10:57:54;;;;;;;4.20;2.25;;;11.80;53.00;;;;;;4192021;28;20061;-72
2022/04/20 11:00:24;;;;;;;3.10;2.38;;;12.00;52.10;;;;;;4189682;28;20096;-72
2022/04/20 11:02:26;;;;;;;4.68;1.98;;;12.00;51.30;;;;;;4182275;28;20152;-73
2022/04/20 11:04:46;;;;;;;4.00;2.22;;;12.10;51.10;;;;;;4193690;28;20177;-74
2022/04/20 11:07:01;;;;;;;3.35;2.22;;;12.10;50.70;;;;;;4188279;28;20883;-74
2022/04/20 11:09:06;;;;;;;2.47;2.25;;;12.10;50.70;;;;;;4172935;28;20061;-72
2022/04/20 11:21:02;;;;;;;5.20;2.45;;;12.20;50.60;;;;;;4195141;28;20158;-73
2022/04/20 11:23:09;;;;;;;2.60;2.40;;;12.20;50.70;;;;;;4190812;28;20139;-74